Time;durP1;ratioP1;P1;durP2;ratioP2;P2;SDS_P1;SDS_P2;PMS_P1;PMS_P2;Temp;Humidity;BMP_temperature;BMP_pressure;BME280_temperature;BME280_humidity;BME280_pressure;Samples;Min_cycle;Max_cycle;Signal;HPM_P1;HPM_P2
2022/12/10 00:01:14;;;;;;;60.90;31.35;;;;;;;1.48;66.10;100767.97;5040121;28;20028;-60
2022/12/10 00:03:40;;;;;;;59.47;31.48;;;;;;;1.52;66.26;100768.44;5034324;28;20013;-60
2022/12/10 00:06:08;;;;;;;60.33;31.13;;;;;;;1.52;66.67;100762.97;5035274;28;20040;-60
2022/12/10 00:08:34;;;;;;;61.85;32.40;;;;;;;1.49;65.83;100768.81;5030388;28;20060;-60
2022/12/10 00:11:01;;;;;;;61.33;31.48;;;;;;;1.51;65.90;100772.22;5022084;28;20033;-61
2022/12/10 00:13:27;;;;;;;60.75;32.60;;;;;;;1.47;66.75;100773.66;5021407;28;20122;-61
2022/12/10 00:15:52;;;;;;;59.83;31.30;;;;;;;1.48;66.42;100775.34;5034628;28;20029;-61
2022/12/10 00:18:17;;;;;;;57.95;32.00;;;;;;;1.48;66.61;100778.94;5035477;28;20037;-61
2022/12/10 00:20:42;;;;;;;56.92;30.55;;;;;;;1.49;65.91;100782.50;5028211;28;20033;-60
2022/12/10 00:23:08;;;;;;;61.72;32.42;;;;;;;1.48;66.23;100780.81;5029663;28;20083;-61
2022/12/10 00:25:33;;;;;;;62.05;32.53;;;;;;;1.50;66.34;100781.47;5027907;28;20124;-61
2022/12/10 00:27:58;;;;;;;72.43;38.05;;;;;;;1.46;66.55;100786.50;5022637;28;20033;-60
2022/12/10 00:30:24;;;;;;;78.95;39.47;;;;;;;1.44;66.49;100782.25;5029507;28;20065;-60
2022/12/10 00:32:49;;;;;;;72.45;37.22;;;;;;;1.43;66.93;100780.56;5028792;28;20551;-60
2022/12/10 00:35:15;;;;;;;61.50;34.05;;;;;;;1.43;66.49;100786.03;5029552;28;20448;-60
2022/12/10 00:37:40;;;;;;;61.67;37.13;;;;;;;1.42;66.33;100790.66;5042679;28;20053;-60
2022/12/10 00:40:06;;;;;;;65.93;38.70;;;;;;;1.39;66.29;100792.94;5036496;28;20175;-60
2022/12/10 00:42:31;;;;;;;67.10;36.95;;;;;;;1.37;67.08;100793.13;5027366;28;20033;-61
2022/12/10 00:44:57;;;;;;;59.60;34.03;;;;;;;1.36;66.09;100794.16;5022434;28;20125;-61
2022/12/10 00:47:22;;;;;;;66.40;37.53;;;;;;;1.35;66.93;100784.28;5044812;28;20021;-61
2022/12/10 00:49:47;;;;;;;68.35;36.85;;;;;;;1.35;66.64;100778.81;5049286;28;20461;-61
2022/12/10 00:52:13;;;;;;;60.65;34.40;;;;;;;1.36;66.89;100779.66;5027025;28;20034;-61
2022/12/10 00:54:38;;;;;;;63.50;35.00;;;;;;;1.34;66.85;100765.34;5029115;28;20037;-60
2022/12/10 00:57:03;;;;;;;60.13;36.17;;;;;;;1.37;66.01;100765.75;5040345;28;20064;-60
2022/12/10 00:59:29;;;;;;;60.90;34.80;;;;;;;1.36;66.48;100771.44;5049534;28;20037;-60
2022/12/10 01:01:54;;;;;;;59.03;33.83;;;;;;;1.35;66.56;100769.75;5032308;28;20125;-60
2022/12/10 01:04:19;;;;;;;62.67;35.13;;;;;;;1.34;66.05;100762.59;5023641;28;20076;-60
2022/12/10 01:06:53;;;;;;;64.65;36.00;;;;;;;1.32;66.91;100757.31;5040097;28;20736;-60
2022/12/10 01:09:21;;;;;;;68.55;36.28;;;;;;;1.30;66.39;100764.00;5044373;28;20025;-60
2022/12/10 01:11:48;;;;;;;66.53;35.63;;;;;;;1.29;66.58;100763.16;5023199;28;20071;-59
2022/12/10 01:14:25;;;;;;;63.22;36.13;;;;;;;1.30;66.28;100764.00;5030017;28;20408;-60
2022/12/10 01:16:55;;;;;;;66.40;37.08;;;;;;;1.29;66.07;100774.09;5028118;28;20037;-60
2022/12/10 01:19:21;;;;;;;61.63;36.00;;;;;;;1.29;66.31;100773.25;5025416;28;20025;-60
2022/12/10 01:21:52;;;;;;;71.30;38.17;;;;;;;1.25;66.43;100772.78;5018679;28;20026;-60
2022/12/10 01:24:19;;;;;;;67.40;37.35;;;;;;;1.25;66.40;100777.41;5043691;28;20039;-60
2022/12/10 01:26:44;;;;;;;65.38;35.30;;;;;;;1.24;66.83;100776.56;5048785;28;20387;-60
2022/12/10 01:29:10;;;;;;;60.47;34.42;;;;;;;1.21;66.79;100783.28;5030211;28;20112;-60
2022/12/10 01:31:37;;;;;;;63.80;34.78;;;;;;;1.23;66.60;100786.66;5032306;28;20132;-60
2022/12/10 01:34:05;;;;;;;62.28;34.90;;;;;;;1.17;67.03;100792.91;5042337;28;20040;-60
2022/12/10 01:36:34;;;;;;;65.28;36.75;;;;;;;1.15;66.38;100800.47;5048847;28;20124;-60
2022/12/10 01:39:00;;;;;;;75.20;38.20;;;;;;;1.17;67.07;100797.53;5025907;28;20116;-60
2022/12/10 01:41:33;;;;;;;65.13;35.20;;;;;;;1.18;66.57;100808.28;5034703;28;20075;-60
2022/12/10 01:44:25;;;;;;;60.17;33.47;;;;;;;1.15;66.64;100805.09;5033919;28;20415;-59
2022/12/10 01:47:00;;;;;;;67.07;35.30;;;;;;;1.14;67.10;100808.84;5046179;28;20825;-60
2022/12/10 01:49:37;;;;;;;64.75;34.70;;;;;;;1.09;66.97;100805.84;5032783;28;20129;-60
2022/12/10 01:52:04;;;;;;;61.50;34.05;;;;;;;1.16;67.43;100812.25;5042820;28;20068;-60
2022/12/10 01:54:37;;;;;;;61.53;34.53;;;;;;;1.11;67.81;100801.88;5020163;28;20479;-60
2022/12/10 01:57:14;;;;;;;57.47;32.58;;;;;;;1.06;67.97;100796.16;5027451;28;20029;-60
2022/12/10 01:59:40;;;;;;;59.05;32.25;;;;;;;1.07;67.50;100799.75;5034022;28;20029;-60
2022/12/10 02:02:08;;;;;;;59.17;32.83;;;;;;;0.96;67.93;100798.34;5033131;28;20053;-60
2022/12/10 02:04:43;;;;;;;61.13;34.22;;;;;;;0.94;67.48;100798.53;5033027;28;20117;-61
2022/12/10 02:07:17;;;;;;;60.05;33.72;;;;;;;0.94;67.57;100798.53;5021983;28;20381;-60
2022/12/10 02:09:45;;;;;;;65.65;35.05;;;;;;;0.89;67.43;100800.13;5041388;28;20068;-60
2022/12/10 02:12:33;;;;;;;60.80;33.15;;;;;;;0.88;68.56;100802.03;5032599;28;20048;-59
2022/12/10 02:15:06;;;;;;;60.08;33.42;;;;;;;0.85;68.03;100807.88;5030700;28;20114;-60
2022/12/10 02:17:39;;;;;;;61.55;35.08;;;;;;;0.86;68.30;100801.34;5032236;28;20033;-60
2022/12/10 02:20:22;;;;;;;62.35;33.75;;;;;;;0.88;68.65;100801.19;5030756;28;20028;-60
2022/12/10 02:22:57;;;;;;;71.55;35.05;;;;;;;0.91;68.29;100800.81;5041840;28;20037;-60
2022/12/10 02:25:28;;;;;;;65.90;35.70;;;;;;;0.86;68.32;100795.06;5020777;28;20025;-60
2022/12/10 02:28:10;;;;;;;66.25;35.13;;;;;;;0.91;68.87;100803.53;5030297;28;20037;-60
2022/12/10 02:30:39;;;;;;;63.50;33.83;;;;;;;0.89;68.46;100797.41;5031269;28;20484;-60
2022/12/10 02:33:06;;;;;;;63.58;35.35;;;;;;;0.91;69.10;100798.91;5030441;28;20086;-60
2022/12/10 02:35:38;;;;;;;64.43;34.90;;;;;;;0.94;68.75;100808.59;5030313;28;20064;-61
2022/12/10 02:38:11;;;;;;;64.97;35.25;;;;;;;0.95;69.20;100802.13;5032630;28;20828;-60
2022/12/10 02:40:39;;;;;;;67.72;35.78;;;;;;;0.95;69.32;100793.91;5034120;28;20280;-59
2022/12/10 02:43:06;;;;;;;60.67;33.28;;;;;;;0.98;68.98;100799.84;5030512;28;20037;-61
2022/12/10 02:45:33;;;;;;;63.88;34.47;;;;;;;0.99;68.72;100789.75;5031189;28;20482;-60
2022/12/10 02:48:02;;;;;;;64.10;34.50;;;;;;;1.00;69.47;100790.59;5030685;28;20120;-60
2022/12/10 02:50:28;;;;;;;66.55;35.17;;;;;;;0.98;69.01;100783.47;5050239;28;20469;-61
2022/12/10 02:52:53;;;;;;;65.60;34.20;;;;;;;1.00;68.82;100787.88;5036520;28;20048;-60
2022/12/10 02:55:19;;;;;;;65.05;35.40;;;;;;;1.04;69.46;100786.44;5031961;28;20845;-61
2022/12/10 02:57:48;;;;;;;63.13;34.00;;;;;;;1.06;69.34;100798.03;5022058;28;20491;-60
2022/12/10 03:00:18;;;;;;;63.70;34.03;;;;;;;1.01;69.44;100798.59;5040404;28;20615;-60
2022/12/10 03:02:51;;;;;;;63.85;36.10;;;;;;;1.06;69.66;100807.09;5035646;28;20040;-60
2022/12/10 03:05:23;;;;;;;64.88;34.53;;;;;;;1.02;69.74;100805.75;5039637;28;20049;-60
2022/12/10 03:07:56;;;;;;;64.05;34.25;;;;;;;1.05;69.84;100810.84;5031015;28;20061;-60
2022/12/10 03:10:31;;;;;;;65.35;35.63;;;;;;;1.08;69.80;100809.63;5044656;28;20028;-60
2022/12/10 03:13:05;;;;;;;63.08;33.38;;;;;;;1.07;69.61;100802.47;5035020;28;20065;-60
2022/12/10 03:15:34;;;;;;;62.63;35.30;;;;;;;1.05;69.95;100802.66;5020790;28;20551;-61
2022/12/10 03:18:03;;;;;;;65.47;35.05;;;;;;;1.05;69.39;100810.84;5031348;28;20029;-61
2022/12/10 03:20:32;;;;;;;67.15;35.33;;;;;;;1.06;69.30;100806.22;5011661;28;20044;-61
2022/12/10 03:22:57;;;;;;;66.43;34.47;;;;;;;1.08;69.68;100799.53;5030595;28;20026;-60
2022/12/10 03:25:26;;;;;;;64.22;33.58;;;;;;;1.07;69.79;100797.00;5019764;28;20038;-61
2022/12/10 03:27:54;;;;;;;66.22;35.97;;;;;;;1.07;69.79;100803.31;5036908;28;20166;-61
2022/12/10 03:30:20;;;;;;;66.63;34.80;;;;;;;1.09;69.81;100801.22;5038360;28;20028;-60
2022/12/10 03:32:46;;;;;;;68.20;36.13;;;;;;;1.09;69.73;100803.09;5022322;28;20044;-61
2022/12/10 03:35:13;;;;;;;69.53;36.17;;;;;;;1.04;69.94;100803.69;5030385;28;20424;-61
2022/12/10 03:37:39;;;;;;;63.67;32.90;;;;;;;1.03;70.06;100806.63;5027471;28;20103;-60
2022/12/10 03:40:06;;;;;;;63.92;34.47;;;;;;;0.97;69.93;100808.22;5029274;28;20029;-60
2022/12/10 03:42:31;;;;;;;63.28;34.00;;;;;;;1.01;69.81;100808.69;5036732;28;20063;-60
2022/12/10 03:44:57;;;;;;;62.65;33.70;;;;;;;1.02;69.78;100811.22;5029568;28;20022;-60
2022/12/10 03:47:23;;;;;;;63.97;33.92;;;;;;;1.02;69.70;100808.50;5040320;28;20397;-60
2022/12/10 03:49:48;;;;;;;65.10;33.97;;;;;;;1.03;69.48;100812.09;5018504;28;20439;-61
2022/12/10 03:52:14;;;;;;;64.78;34.63;;;;;;;0.97;69.58;100814.53;5029831;28;20113;-61
2022/12/10 03:54:39;;;;;;;64.47;33.90;;;;;;;0.97;70.03;100816.44;5029455;28;20039;-61
2022/12/10 03:57:04;;;;;;;66.72;33.35;;;;;;;1.00;70.48;100815.22;5029901;28;20052;-61
2022/12/10 03:59:30;;;;;;;63.55;33.80;;;;;;;1.00;69.67;100817.94;5028564;28;20037;-60
2022/12/10 04:01:55;;;;;;;64.00;33.85;;;;;;;0.98;69.63;100815.38;5028584;28;20033;-61
2022/12/10 04:04:20;;;;;;;66.60;35.17;;;;;;;0.96;70.39;100812.00;5045281;28;20120;-60
2022/12/10 04:06:46;;;;;;;64.63;34.05;;;;;;;0.97;70.06;100820.00;5016780;28;20048;-60
2022/12/10 04:09:13;;;;;;;67.07;34.47;;;;;;;0.98;70.05;100818.13;5027206;28;20112;-60
2022/12/10 04:11:38;;;;;;;67.57;33.63;;;;;;;1.03;69.94;100818.41;5028163;28;20036;-60
2022/12/10 04:16:48;;;;;;;73.07;34.40;;;;;;;1.00;70.47;100816.03;5031291;28;20183;-61
2022/12/10 04:19:16;;;;;;;70.95;35.50;;;;;;;1.05;70.33;100826.41;5029963;28;20124;-60
2022/12/10 04:27:41;;;;;;;73.30;36.13;;;;;;;1.12;70.87;100817.25;5016949;28;20207;-61
2022/12/10 04:30:08;;;;;;;67.90;34.88;;;;;;;1.07;70.56;100816.13;5028401;28;20076;-61
2022/12/10 04:32:34;;;;;;;70.85;36.40;;;;;;;1.06;70.26;100817.16;5030506;28;20026;-60
2022/12/10 04:34:59;;;;;;;76.28;37.35;;;;;;;1.03;70.68;100823.88;5032321;28;20075;-61
2022/12/10 04:37:25;;;;;;;73.75;36.22;;;;;;;1.01;70.88;100823.19;5050136;28;20496;-61
2022/12/10 04:39:51;;;;;;;79.15;37.83;;;;;;;0.99;70.95;100825.28;5038024;28;20063;-61
2022/12/10 04:42:17;;;;;;;75.07;36.38;;;;;;;0.96;70.23;100831.97;5017124;28;20033;-60
2022/12/10 04:44:43;;;;;;;74.75;38.35;;;;;;;1.01;70.85;100827.81;5029374;28;20033;-60
2022/12/10 04:47:09;;;;;;;76.25;36.97;;;;;;;0.99;70.18;100833.50;5048394;28;20039;-61
2022/12/10 04:49:35;;;;;;;80.40;38.92;;;;;;;1.00;70.67;100831.59;5037374;28;20034;-60
2022/12/10 04:52:01;;;;;;;76.25;38.38;;;;;;;0.98;70.23;100831.78;5042044;28;20044;-61
2022/12/10 04:54:27;;;;;;;75.65;37.20;;;;;;;0.96;70.41;100831.97;5030168;28;20656;-61
2022/12/10 04:56:52;;;;;;;71.88;36.30;;;;;;;0.97;71.20;100836.41;5025766;28;20049;-61
2022/12/10 04:59:18;;;;;;;79.07;37.30;;;;;;;1.00;70.43;100835.19;5018704;28;20075;-60
2022/12/10 05:01:43;;;;;;;78.72;39.58;;;;;;;0.97;70.90;100838.28;5025813;28;20033;-60
2022/12/10 05:04:12;;;;;;;74.50;36.63;;;;;;;1.00;70.85;100837.06;5027797;28;20503;-61
2022/12/10 05:06:37;;;;;;;75.65;36.75;;;;;;;0.96;70.23;100834.72;5028014;28;20396;-61
2022/12/10 05:09:03;;;;;;;70.82;35.83;;;;;;;0.93;70.33;100835.09;5042742;28;20028;-61
2022/12/10 05:11:30;;;;;;;72.70;38.38;;;;;;;0.92;70.47;100838.03;5032479;28;20128;-60
2022/12/10 05:13:57;;;;;;;73.15;35.65;;;;;;;0.96;70.32;100837.44;5026603;28;20033;-61
2022/12/10 05:16:23;;;;;;;73.35;36.53;;;;;;;0.97;70.46;100838.28;5027803;28;20024;-61
2022/12/10 05:18:49;;;;;;;76.60;36.92;;;;;;;0.92;70.38;100827.94;5029890;28;20435;-61
2022/12/10 05:21:16;;;;;;;70.10;36.95;;;;;;;0.93;70.56;100834.25;5028305;28;20117;-60
2022/12/10 05:23:44;;;;;;;71.78;35.05;;;;;;;0.91;70.23;100830.88;5027915;28;20469;-61
2022/12/10 05:26:16;;;;;;;70.93;34.38;;;;;;;0.93;70.72;100834.25;5025717;28;20056;-61
2022/12/10 05:28:55;;;;;;;78.23;34.73;;;;;;;0.93;71.23;100839.72;5028470;28;20116;-60
2022/12/10 05:31:22;;;;;;;74.95;35.95;;;;;;;0.90;70.87;100837.34;5023691;28;20091;-60
2022/12/10 05:33:48;;;;;;;70.70;34.33;;;;;;;0.91;70.76;100841.81;5018159;28;20080;-60
2022/12/10 05:36:18;;;;;;;70.82;35.08;;;;;;;0.91;71.07;100842.66;5033733;28;20480;-61
2022/12/10 05:38:43;;;;;;;73.15;35.65;;;;;;;0.92;71.23;100830.66;5028708;28;20083;-61
2022/12/10 05:41:16;;;;;;;74.63;36.05;;;;;;;0.94;71.22;100834.06;5030245;28;20026;-61
2022/12/10 05:43:42;;;;;;;;;;;;;;;1.11;70.28;100831.97;5031327;28;20029;-61
2022/12/10 05:46:14;;;;;;;73.40;32.92;;;;;;;0.98;71.26;100831.78;5032496;28;20367;-61
2022/12/10 05:48:39;;;;;;;68.25;33.08;;;;;;;1.01;71.25;100830.56;5028311;28;20239;-61
2022/12/10 05:51:07;;;;;;;71.75;34.72;;;;;;;0.95;71.21;100830.28;5026015;28;20129;-61
2022/12/10 05:53:33;;;;;;;73.57;34.92;;;;;;;0.96;70.79;100839.34;5022397;28;20033;-61
2022/12/10 05:56:06;;;;;;;72.28;34.72;;;;;;;0.94;71.35;100835.94;5018808;28;20032;-61
2022/12/10 05:58:31;;;;;;;78.43;35.58;;;;;;;0.94;70.48;100836.81;5024171;28;20029;-60
2022/12/10 06:00:57;;;;;;;69.03;32.83;;;;;;;0.95;70.64;100837.66;5022477;28;20032;-61
2022/12/10 06:03:24;;;;;;;73.55;35.05;;;;;;;0.92;71.04;100843.50;5026849;28;20116;-61
2022/12/10 06:05:50;;;;;;;73.30;34.38;;;;;;;0.96;71.48;100850.25;5025217;28;20037;-61
2022/12/10 06:08:15;;;;;;;76.78;33.75;;;;;;;0.94;70.94;100846.84;5038783;28;20430;-60
2022/12/10 06:10:40;;;;;;;69.68;32.92;;;;;;;0.93;71.45;100846.03;5048471;28;20064;-60
2022/12/10 06:13:06;;;;;;;73.60;34.03;;;;;;;0.92;71.06;100849.78;5029524;28;20056;-60
2022/12/10 06:15:32;;;;;;;70.80;33.97;;;;;;;0.93;71.30;100850.63;5034500;28;20036;-60
2022/12/10 06:17:58;;;;;;;72.10;33.80;;;;;;;0.94;71.40;100847.72;5020664;28;20022;-60
2022/12/10 06:20:25;;;;;;;73.15;33.08;;;;;;;0.95;71.35;100854.03;5023402;28;20036;-60
2022/12/10 06:22:50;;;;;;;72.75;33.42;;;;;;;0.91;71.52;100852.72;5032330;28;20029;-60
2022/12/10 06:25:16;;;;;;;69.95;33.75;;;;;;;0.91;70.82;100853.56;5037862;28;20025;-60
2022/12/10 06:27:41;;;;;;;70.60;33.63;;;;;;;0.92;71.23;100865.34;5041624;28;20044;-60
2022/12/10 06:30:08;;;;;;;66.65;31.80;;;;;;;0.89;71.15;100861.09;5039488;28;20083;-60
2022/12/10 06:32:33;;;;;;;71.60;32.58;;;;;;;0.92;71.68;100855.25;5036061;28;20025;-60
2022/12/10 06:34:58;;;;;;;72.60;33.13;;;;;;;0.91;71.47;100853.56;5029413;28;20034;-61
2022/12/10 06:37:24;;;;;;;74.00;33.17;;;;;;;0.93;71.37;100854.22;5013819;28;20073;-60
2022/12/10 06:39:52;;;;;;;67.28;31.88;;;;;;;0.93;71.61;100856.09;5031401;28;20033;-60
2022/12/10 06:42:19;;;;;;;71.57;32.55;;;;;;;0.92;71.23;100854.41;5040206;28;20036;-60
2022/12/10 06:44:44;;;;;;;66.05;32.22;;;;;;;0.95;71.56;100859.50;5023328;28;20140;-61
2022/12/10 06:47:10;;;;;;;70.22;32.85;;;;;;;0.96;71.02;100858.47;5040257;28;20112;-60
2022/12/10 06:49:35;;;;;;;68.85;33.22;;;;;;;0.95;71.50;100859.50;5051195;28;20500;-61
2022/12/10 06:52:01;;;;;;;71.70;32.85;;;;;;;0.90;71.49;100870.16;5040933;28;20026;-59
2022/12/10 06:54:26;;;;;;;71.85;34.38;;;;;;;0.91;70.98;100869.13;5025888;28;20481;-60
2022/12/10 06:56:52;;;;;;;87.05;40.10;;;;;;;0.94;71.85;100868.72;5030384;28;20063;-60
2022/12/10 06:59:17;;;;;;;83.93;40.28;;;;;;;0.96;71.24;100872.97;5031350;28;20033;-60
2022/12/10 07:01:42;;;;;;;83.45;39.25;;;;;;;0.96;71.90;100883.06;5034686;28;20033;-60
2022/12/10 07:04:08;;;;;;;77.55;35.88;;;;;;;0.98;71.10;100889.16;5031600;28;20033;-60
2022/12/10 07:06:33;;;;;;;79.18;35.78;;;;;;;0.98;71.89;100890.03;5031394;28;20539;-60
2022/12/10 07:08:59;;;;;;;81.03;37.72;;;;;;;0.97;71.75;100884.75;5029088;28;20056;-60
2022/12/10 07:11:24;;;;;;;81.38;38.28;;;;;;;0.94;71.47;100891.47;5023711;28;20076;-60
2022/12/10 07:13:50;;;;;;;77.75;36.65;;;;;;;0.94;71.44;100891.47;5032172;28;20064;-60
2022/12/10 07:16:17;;;;;;;81.18;36.83;;;;;;;0.90;71.67;100886.53;5030269;28;20056;-59
2022/12/10 07:18:43;;;;;;;85.65;39.65;;;;;;;0.90;72.03;100883.81;5032058;28;20060;-59
2022/12/10 07:21:26;;;;;;;82.10;39.67;;;;;;;0.91;72.18;100885.53;5031222;28;20021;-59
2022/12/10 07:23:53;;;;;;;80.38;40.05;;;;;;;0.90;71.96;100892.00;5031347;28;20052;-60
2022/12/10 07:26:19;;;;;;;88.30;42.92;;;;;;;0.90;72.01;100897.47;5027397;28;20509;-60
2022/12/10 07:28:45;;;;;;;78.90;38.42;;;;;;;0.89;71.75;100891.16;5022281;28;20033;-60
2022/12/10 07:31:10;;;;;;;84.30;40.25;;;;;;;0.93;71.57;100894.38;5030829;28;20120;-60
2022/12/10 07:33:39;;;;;;;80.85;38.58;;;;;;;0.96;71.61;100899.47;5031228;28;20052;-60
2022/12/10 07:36:14;;;;;;;77.40;39.47;;;;;;;0.95;72.33;100900.50;5031093;28;20045;-60
2022/12/10 07:38:39;;;;;;;83.03;39.70;;;;;;;0.94;72.34;100904.25;5030918;28;20422;-60
2022/12/10 07:41:08;;;;;;;80.35;39.78;;;;;;;0.92;72.28;100901.72;5030847;28;20043;-60
2022/12/10 07:43:35;;;;;;;82.78;39.70;;;;;;;0.94;72.23;100904.25;5024200;28;20037;-60
2022/12/10 07:46:05;;;;;;;83.47;39.63;;;;;;;1.00;71.90;100905.41;5023422;28;20675;-60
2022/12/10 07:48:31;;;;;;;83.15;38.97;;;;;;;1.01;72.20;100907.94;5031260;28;20037;-60
2022/12/10 07:50:57;;;;;;;78.50;38.33;;;;;;;1.00;72.00;100922.63;5029653;28;20571;-60
2022/12/10 07:53:23;;;;;;;81.28;37.45;;;;;;;1.02;72.04;100915.09;5031194;28;20021;-61
2022/12/10 07:55:49;;;;;;;80.53;35.35;;;;;;;1.02;72.02;100908.78;5029979;28;20018;-60
2022/12/10 07:58:14;;;;;;;80.60;37.13;;;;;;;1.03;71.88;100914.06;5023838;28;20025;-61
2022/12/10 08:00:39;;;;;;;82.30;39.10;;;;;;;1.05;72.30;100913.88;5030580;28;20029;-60
2022/12/10 08:03:04;;;;;;;83.93;37.63;;;;;;;1.01;72.39;100907.94;5030799;28;20033;-61
2022/12/10 08:05:30;;;;;;;86.90;40.65;;;;;;;0.99;71.66;100915.50;5029746;28;20108;-61
2022/12/10 08:07:55;;;;;;;85.57;40.40;;;;;;;1.02;71.93;100920.56;5029870;28;20091;-60
2022/12/10 08:10:20;;;;;;;86.35;37.58;;;;;;;1.01;72.62;100916.13;5030551;28;20025;-60
2022/12/10 08:12:45;;;;;;;88.63;41.80;;;;;;;0.99;71.70;100923.69;5030192;28;20036;-60
2022/12/10 08:15:11;;;;;;;81.35;38.30;;;;;;;1.00;72.71;100930.00;5019353;28;20112;-61
2022/12/10 08:17:36;;;;;;;90.53;39.70;;;;;;;0.98;72.48;100931.03;5030545;28;20567;-61
2022/12/10 08:20:01;;;;;;;83.95;39.22;;;;;;;0.99;72.53;100931.88;5029850;28;20151;-61
2022/12/10 08:22:27;;;;;;;77.18;36.67;;;;;;;1.00;72.13;100936.31;5029837;28;20568;-60
2022/12/10 08:24:52;;;;;;;81.22;38.25;;;;;;;0.98;72.05;100931.03;5022646;28;20022;-61
2022/12/10 08:27:17;;;;;;;78.93;37.45;;;;;;;1.02;72.21;100936.09;5011884;28;20397;-61
2022/12/10 08:29:43;;;;;;;77.05;37.00;;;;;;;1.05;72.34;100946.66;5008309;28;20168;-61
2022/12/10 08:32:08;;;;;;;75.68;36.67;;;;;;;1.09;72.84;100943.38;5021737;28;20052;-61
2022/12/10 08:34:33;;;;;;;78.05;36.90;;;;;;;1.07;71.99;100950.91;5025680;28;20072;-61
2022/12/10 08:36:58;;;;;;;77.63;36.60;;;;;;;1.08;72.49;100946.28;5030295;28;20053;-61
2022/12/10 08:39:24;;;;;;;78.35;37.42;;;;;;;1.03;72.07;100946.03;5029799;28;20102;-61
2022/12/10 08:41:49;;;;;;;78.10;37.05;;;;;;;1.04;72.42;100961.38;5017177;28;20025;-61
2022/12/10 08:44:14;;;;;;;77.82;35.85;;;;;;;1.03;72.65;100960.53;5016076;28;20052;-61
2022/12/10 08:46:40;;;;;;;74.63;35.08;;;;;;;1.01;72.53;100962.59;5020357;28;20513;-60
2022/12/10 08:49:06;;;;;;;73.38;34.13;;;;;;;1.02;72.24;100967.00;5034910;28;20028;-60
2022/12/10 08:51:32;;;;;;;77.88;35.58;;;;;;;0.98;72.21;100969.31;5042604;28;20400;-60
2022/12/10 08:53:57;;;;;;;75.18;35.35;;;;;;;1.00;72.66;100969.09;5050289;28;20029;-60
2022/12/10 08:56:23;;;;;;;74.78;33.97;;;;;;;0.99;73.01;100956.47;5035345;28;20051;-60
2022/12/10 08:58:48;;;;;;;73.10;33.80;;;;;;;1.04;72.68;100966.84;5032402;28;20068;-60
2022/12/10 09:01:17;;;;;;;67.13;32.40;;;;;;;1.02;73.14;100969.75;5032087;28;20029;-60
2022/12/10 09:03:45;;;;;;;66.57;31.88;;;;;;;0.99;72.41;100964.69;5027394;28;20039;-60
2022/12/10 09:06:16;;;;;;;70.10;31.67;;;;;;;1.03;72.88;100971.47;5037495;28;20337;-61
2022/12/10 09:08:42;;;;;;;66.68;32.60;;;;;;;1.03;72.99;100970.63;5033428;28;20381;-61
2022/12/10 09:11:10;;;;;;;67.22;32.88;;;;;;;1.06;73.04;100979.31;5050384;28;20047;-61
2022/12/10 09:13:36;;;;;;;72.47;34.20;;;;;;;1.08;73.05;100973.63;5044681;28;20029;-61
2022/12/10 09:16:01;;;;;;;68.22;32.88;;;;;;;1.08;73.29;100974.47;5046993;28;20029;-60
2022/12/10 09:18:27;;;;;;;69.57;33.38;;;;;;;1.07;73.00;100972.78;5048787;28;20029;-61
2022/12/10 09:20:52;;;;;;;65.00;30.90;;;;;;;1.05;72.97;100979.47;5028856;28;20075;-59
2022/12/10 09:23:17;;;;;;;65.15;30.13;;;;;;;1.04;73.20;100977.78;5026521;28;20056;-60
2022/12/10 09:25:43;;;;;;;67.80;32.63;;;;;;;1.00;72.71;100985.50;5030965;28;20049;-60
2022/12/10 09:28:08;;;;;;;70.88;32.60;;;;;;;1.04;73.23;100986.81;5029848;28;20060;-59
2022/12/10 09:30:33;;;;;;;63.95;30.73;;;;;;;1.07;72.74;100977.41;5029673;28;20059;-59
2022/12/10 09:32:59;;;;;;;64.57;33.78;;;;;;;1.05;72.65;100985.78;5029418;28;20037;-60
2022/12/10 09:35:24;;;;;;;68.55;33.13;;;;;;;1.04;72.66;100984.09;5029594;28;20041;-61
2022/12/10 09:37:50;;;;;;;63.10;30.73;;;;;;;1.06;72.72;100992.09;5029453;28;20065;-60
2022/12/10 09:40:18;;;;;;;61.88;29.58;;;;;;;1.04;72.54;100986.81;5025757;28;20045;-60
2022/12/10 09:43:00;;;;;;;66.90;31.27;;;;;;;1.05;73.01;100996.72;5027598;28;20075;-59
2022/12/10 09:45:57;;;;;;;63.30;29.67;;;;;;;1.10;73.34;100998.88;5029336;28;20029;-59
2022/12/10 09:48:50;;;;;;;62.13;29.70;;;;;;;1.13;72.86;101004.81;5029279;28;20061;-60
2022/12/10 09:51:23;;;;;;;63.65;29.30;;;;;;;1.07;73.21;101002.84;5030326;28;20132;-59
2022/12/10 09:53:58;;;;;;;60.30;29.00;;;;;;;1.08;73.33;101004.53;5033504;28;20056;-60
2022/12/10 09:56:26;;;;;;;65.72;29.25;;;;;;;1.05;72.26;101004.06;5033596;28;20028;-59
2022/12/10 09:58:52;;;;;;;60.60;29.05;;;;;;;1.04;73.02;101005.13;5025015;28;20028;-59
2022/12/10 10:01:22;;;;;;;61.85;29.70;;;;;;;1.02;72.90;101007.16;5033702;28;20025;-59
2022/12/10 10:03:48;;;;;;;61.17;28.77;;;;;;;1.03;72.48;101008.88;5033108;28;20531;-59
2022/12/10 10:06:14;;;;;;;62.05;29.30;;;;;;;1.00;72.97;101004.63;5031232;28;20064;-59
2022/12/10 10:09:02;;;;;;;63.95;28.95;;;;;;;1.07;72.92;101013.78;5028780;28;20037;-59
2022/12/10 10:11:30;;;;;;;62.22;30.63;;;;;;;1.07;72.69;101022.00;5026371;28;20026;-60
2022/12/10 10:14:01;;;;;;;65.03;31.63;;;;;;;1.10;72.63;101020.75;5029331;28;20846;-59
2022/12/10 10:16:33;;;;;;;65.72;29.25;;;;;;;1.10;72.50;101027.09;5021216;28;20044;-59
2022/12/10 10:19:01;;;;;;;67.10;30.05;;;;;;;1.10;72.58;101018.00;5027697;28;20112;-59
2022/12/10 10:21:35;;;;;;;69.78;34.53;;;;;;;1.09;72.80;101024.53;5028528;28;20021;-59
2022/12/10 10:24:02;;;;;;;76.95;37.95;;;;;;;1.08;73.13;101018.22;5030840;28;20033;-59
2022/12/10 10:26:28;;;;;;;78.45;37.60;;;;;;;1.15;72.95;101018.31;5020240;28;20124;-58
2022/12/10 10:29:00;;;;;;;71.88;34.67;;;;;;;1.16;73.57;101023.59;5025243;28;20033;-60
2022/12/10 10:31:28;;;;;;;72.38;33.33;;;;;;;1.18;73.17;101024.28;5029932;28;20040;-59
2022/12/10 10:33:56;;;;;;;67.28;29.77;;;;;;;1.16;72.96;101020.84;5023210;28;20049;-59
2022/12/10 10:36:27;;;;;;;66.32;28.83;;;;;;;1.15;72.54;101023.78;5023857;28;20112;-60
2022/12/10 10:38:53;;;;;;;65.53;29.27;;;;;;;1.15;72.65;101027.38;5020983;28;20441;-59
2022/12/10 10:41:19;;;;;;;65.75;28.90;;;;;;;1.15;73.16;101026.53;5031165;28;20052;-60
2022/12/10 10:43:47;;;;;;;65.85;30.10;;;;;;;1.13;72.34;101018.50;5043359;28;20032;-60
2022/12/10 10:46:15;;;;;;;61.15;27.55;;;;;;;1.08;73.07;101018.22;5035793;28;20116;-60
2022/12/10 10:48:40;;;;;;;62.42;28.40;;;;;;;1.08;73.21;101011.91;5032445;28;20056;-60
2022/12/10 10:51:18;;;;;;;64.65;28.55;;;;;;;1.00;72.83;101010.09;5043392;28;20021;-60
2022/12/10 10:53:54;;;;;;;63.92;29.23;;;;;;;1.01;73.73;101014.53;5024296;28;20124;-60
2022/12/10 10:56:25;;;;;;;68.38;29.63;;;;;;;1.05;73.90;101012.28;5040971;28;20040;-60
2022/12/10 10:59:06;;;;;;;72.85;31.92;;;;;;;1.09;73.86;101008.97;5044764;28;20056;-60
2022/12/10 11:01:57;;;;;;;66.90;29.85;;;;;;;1.10;73.75;101007.97;5040465;28;20032;-60
2022/12/10 11:04:35;;;;;;;66.90;29.27;;;;;;;1.13;73.14;101006.72;5029963;28;20040;-59
2022/12/10 11:07:02;;;;;;;65.95;29.73;;;;;;;1.10;73.67;101012.53;5025089;28;20037;-60
2022/12/10 11:09:32;;;;;;;62.22;28.40;;;;;;;1.08;73.51;101000.97;5022488;28;20041;-60
2022/12/10 11:12:06;;;;;;;60.80;27.50;;;;;;;1.07;72.63;101007.47;5028005;28;20116;-59
2022/12/10 11:14:38;;;;;;;57.97;26.63;;;;;;;1.07;72.90;101000.13;5031588;28;20505;-58
2022/12/10 11:17:09;;;;;;;58.35;27.85;;;;;;;1.09;73.14;101002.66;5020586;28;20053;-60
2022/12/10 11:19:35;;;;;;;60.67;27.98;;;;;;;1.07;73.46;101002.84;5040715;28;20036;-59
2022/12/10 11:22:20;;;;;;;59.88;28.27;;;;;;;1.10;73.44;101005.22;5036605;28;20026;-59
2022/12/10 11:24:47;;;;;;;62.03;27.92;;;;;;;1.13;73.35;100996.63;5038285;28;20443;-59
2022/12/10 11:27:38;;;;;;;63.90;28.83;;;;;;;1.16;73.15;100990.78;5043592;28;20037;-59
2022/12/10 11:30:09;;;;;;;58.00;27.20;;;;;;;1.17;72.81;101002.56;5049219;28;20171;-58